createdAt,value
2022-09-18T00:01:43.042Z,9.60
2022-09-18T00:04:14.040Z,9.40
2022-09-18T00:06:43.636Z,9.30
2022-09-18T00:09:13.874Z,9.20
2022-09-18T00:11:44.881Z,9.20
2022-09-18T00:14:16.934Z,9.30
2022-09-18T00:16:44.641Z,9.30
2022-09-18T00:24:17.237Z,9.50
2022-09-18T00:26:45.546Z,9.30
2022-09-18T00:29:13.902Z,9.40
2022-09-18T00:31:42.376Z,9.30
2022-09-18T00:34:13.824Z,9.30
2022-09-18T00:36:42.324Z,9.40
2022-09-18T00:39:11.385Z,9.30
2022-09-18T00:41:41.682Z,9.40
2022-09-18T00:59:58.112Z,9.20
2022-09-18T01:02:28.329Z,9.40
2022-09-18T01:04:56.824Z,9.40
2022-09-18T01:07:40.352Z,9.50
2022-09-18T01:10:24.612Z,9.40
2022-09-18T01:12:55.532Z,9.40
2022-09-18T01:15:31.432Z,9.60
2022-09-18T01:23:21.071Z,9.30
2022-09-18T01:25:57.163Z,9.20
2022-09-18T01:28:33.462Z,9.20
2022-09-18T01:31:06.294Z,9.10
2022-09-18T01:33:40.572Z,9.10
2022-09-18T01:36:14.265Z,9.10
2022-09-18T01:38:45.368Z,9.00
2022-09-18T01:45:35.265Z,9.20
2022-09-18T01:48:07.303Z,9.20
2022-09-18T01:50:40.147Z,9.30
2022-09-18T01:53:14.672Z,9.40
2022-09-18T01:55:46.034Z,9.30
2022-09-18T01:58:18.462Z,9.30
2022-09-18T02:00:51.752Z,9.40
2022-09-18T02:06:37.435Z,9.40
2022-09-18T02:09:05.752Z,9.30
2022-09-18T02:11:34.782Z,9.40
2022-09-18T02:14:06.806Z,9.40
2022-09-18T02:16:38.073Z,9.50
2022-09-18T02:19:10.762Z,9.40
2022-09-18T02:21:42.356Z,9.40
2022-09-18T02:24:12.824Z,9.40
2022-09-18T02:31:41.550Z,9.50
2022-09-18T02:34:11.744Z,9.60
2022-09-18T02:36:52.885Z,9.60
2022-09-18T02:39:32.491Z,9.60
2022-09-18T02:42:12.308Z,9.60
2022-09-18T02:44:50.832Z,9.70
2022-09-18T02:47:32.033Z,9.60
2022-09-18T02:55:12.464Z,9.30
2022-09-18T02:57:44.755Z,9.70
2022-09-18T03:00:16.802Z,9.70
2022-09-18T03:02:44.602Z,9.70
2022-09-18T03:05:12.422Z,9.60
2022-09-18T03:07:41.486Z,9.70
2022-09-18T03:10:12.243Z,9.70
2022-09-18T03:17:45.545Z,9.70
2022-09-18T03:20:14.004Z,9.80
2022-09-18T03:22:41.232Z,9.80
2022-09-18T03:25:09.703Z,9.60
2022-09-18T03:27:39.912Z,9.70
2022-09-18T03:30:08.674Z,9.80
2022-09-18T03:32:36.024Z,9.70
2022-09-18T03:40:24.442Z,9.50
2022-09-18T03:43:00.416Z,9.40
2022-09-18T03:45:37.751Z,9.60
2022-09-18T03:48:07.045Z,9.70
2022-09-18T03:50:37.332Z,9.70
2022-09-18T03:53:05.745Z,9.70
2022-09-18T03:55:38.352Z,9.50
2022-09-18T03:58:14.943Z,9.50
2022-09-18T04:00:52.648Z,9.50
2022-09-18T04:10:50.885Z,9.30
2022-09-18T04:13:18.112Z,9.20
2022-09-18T04:15:49.238Z,9.30
2022-09-18T04:18:16.795Z,9.30
2022-09-18T04:20:44.215Z,9.30
2022-09-18T04:23:14.054Z,9.20
2022-09-18T04:25:43.252Z,9.30
2022-09-18T04:34:02.032Z,9.30
2022-09-18T04:36:29.284Z,9.20
2022-09-18T04:39:02.508Z,9.20
2022-09-18T04:41:30.332Z,9.30
2022-09-18T04:44:01.256Z,9.40
2022-09-18T04:46:29.072Z,9.60
2022-09-18T04:48:56.503Z,9.40
2022-09-18T04:54:14.901Z,9.50
2022-09-18T04:56:42.923Z,9.20
2022-09-18T04:59:10.342Z,9.40
2022-09-18T05:01:38.113Z,9.50
2022-09-18T05:04:06.594Z,9.40
2022-09-18T05:06:34.472Z,9.40
2022-09-18T05:09:02.165Z,9.40
2022-09-18T05:16:39.241Z,9.50
2022-09-18T05:19:06.900Z,9.40
2022-09-18T05:21:34.616Z,9.30
2022-09-18T05:24:02.401Z,9.20
2022-09-18T05:26:30.632Z,9.20
2022-09-18T05:28:58.193Z,9.20
2022-09-18T05:31:25.758Z,9.20
2022-09-18T05:39:00.210Z,9.30
2022-09-18T05:41:27.970Z,9.40
2022-09-18T05:43:55.236Z,9.40
2022-09-18T05:46:22.530Z,9.40
2022-09-18T05:48:50.354Z,9.20
2022-09-18T05:51:17.728Z,9.30
2022-09-18T05:53:47.884Z,9.20
2022-09-18T06:02:09.590Z,9.30
2022-09-18T06:05:04.522Z,9.20
2022-09-18T06:08:00.944Z,9.20
2022-09-18T06:14:28.271Z,9.30
2022-09-18T06:17:11.982Z,9.20
2022-09-18T06:19:46.067Z,9.30
2022-09-18T06:22:52.189Z,9.50
2022-09-18T06:26:01.187Z,9.40
2022-09-18T06:28:42.315Z,9.50
2022-09-18T06:37:26.705Z,9.40
2022-09-18T06:40:20.170Z,9.30
2022-09-18T06:43:04.015Z,9.40
2022-09-18T06:45:56.625Z,9.40
2022-09-18T06:48:38.642Z,9.50
2022-09-18T06:51:09.142Z,9.60
2022-09-18T06:53:40.714Z,9.70
2022-09-18T06:56:12.702Z,9.60
2022-09-18T07:00:23.573Z,9.80
2022-09-18T07:18:25.524Z,9.80
2022-09-18T07:20:53.870Z,9.70
2022-09-18T07:23:21.464Z,9.80
2022-09-18T07:25:49.442Z,9.70
2022-09-18T07:28:17.545Z,9.60
2022-09-18T07:30:45.975Z,9.90
2022-09-18T07:33:14.542Z,9.90
2022-09-18T07:40:46.626Z,9.90
2022-09-18T07:43:14.174Z,9.70
2022-09-18T07:45:44.822Z,9.80
2022-09-18T07:48:12.361Z,9.90
2022-09-18T07:50:40.072Z,9.80
2022-09-18T07:53:08.849Z,9.70
2022-09-18T07:55:38.312Z,9.90
2022-09-18T07:58:08.444Z,10.10
2022-09-18T08:05:37.633Z,10.00
2022-09-18T08:08:06.231Z,10.00
2022-09-18T08:10:36.018Z,10.00
2022-09-18T08:13:04.803Z,10.10
2022-09-18T08:15:33.498Z,10.20
2022-09-18T08:18:01.034Z,10.20
2022-09-18T08:20:29.153Z,10.30
2022-09-18T08:28:04.163Z,10.10
2022-09-18T08:30:34.962Z,10.10
2022-09-18T08:33:06.888Z,10.10
2022-09-18T08:35:35.145Z,10.40
2022-09-18T08:38:05.210Z,10.30
2022-09-18T08:40:51.894Z,10.30
2022-09-18T08:43:39.143Z,10.20
2022-09-18T08:49:09.345Z,10.10
2022-09-18T08:51:46.840Z,10.10
2022-09-18T08:54:21.754Z,10.30
2022-09-18T08:56:52.585Z,10.40
2022-09-18T08:59:36.641Z,10.40
2022-09-18T09:02:31.958Z,10.30
2022-09-18T09:05:09.065Z,10.30
2022-09-18T09:12:59.478Z,10.20
2022-09-18T09:15:39.659Z,10.40
2022-09-18T09:18:18.342Z,10.70
2022-09-18T09:20:52.633Z,10.40
2022-09-18T09:23:30.515Z,10.50
2022-09-18T09:26:06.391Z,10.70
2022-09-18T09:28:43.326Z,10.50
2022-09-18T09:36:20.964Z,10.60
2022-09-18T09:38:53.612Z,10.60
2022-09-18T09:41:29.261Z,10.50
2022-09-18T09:44:06.172Z,10.60
2022-09-18T09:46:51.804Z,10.60
2022-09-18T09:49:25.264Z,10.60
2022-09-18T09:52:08.218Z,10.80
2022-09-18T09:57:52.373Z,10.60
2022-09-18T10:00:21.050Z,10.60
2022-09-18T10:03:05.994Z,10.70
2022-09-18T10:05:38.699Z,10.50
2022-09-18T10:08:12.635Z,10.80
2022-09-18T10:10:45.174Z,10.60
2022-09-18T10:13:18.102Z,10.60
2022-09-18T10:20:59.494Z,10.70
2022-09-18T10:23:33.947Z,10.70
2022-09-18T10:26:03.064Z,10.80
2022-09-18T10:28:31.062Z,10.80
2022-09-18T10:31:01.615Z,10.80
2022-09-18T10:33:40.834Z,10.60
2022-09-18T10:36:20.679Z,10.50
2022-09-18T10:43:59.092Z,10.60
2022-09-18T10:46:32.288Z,10.50
2022-09-18T10:49:05.114Z,10.40
2022-09-18T10:51:32.562Z,10.50
2022-09-18T10:54:06.154Z,10.60
2022-09-18T10:56:33.562Z,10.60
2022-09-18T10:59:32.652Z,10.60
2022-09-18T11:09:56.440Z,11.00
2022-09-18T11:12:27.743Z,10.90
2022-09-18T11:15:02.105Z,11.00
2022-09-18T11:17:32.195Z,11.20
2022-09-18T11:20:03.674Z,11.00
2022-09-18T11:22:39.122Z,10.90
2022-09-18T11:25:25.994Z,11.00
2022-09-18T11:27:56.302Z,11.10
2022-09-18T11:35:32.062Z,10.90
2022-09-18T11:38:06.324Z,10.90
2022-09-18T11:40:45.369Z,11.00
2022-09-18T11:43:16.335Z,11.20
2022-09-18T11:45:51.362Z,10.90
2022-09-18T11:48:31.334Z,10.80
2022-09-18T11:51:06.970Z,10.80
2022-09-18T11:56:48.235Z,10.70
2022-09-18T11:59:26.063Z,10.40
2022-09-18T12:02:00.281Z,10.40
2022-09-18T12:04:50.084Z,10.60
2022-09-18T12:07:42.938Z,10.60
2022-09-18T12:10:21.366Z,10.60
2022-09-18T12:20:55.377Z,10.20
2022-09-18T12:23:25.763Z,10.20
2022-09-18T12:26:10.411Z,10.20
2022-09-18T12:28:57.073Z,10.20
2022-09-18T12:31:31.470Z,10.10
2022-09-18T12:34:08.468Z,10.20
2022-09-18T12:36:54.945Z,10.10
2022-09-18T12:57:45.667Z,10.20
2022-09-18T13:00:16.535Z,10.10
2022-09-18T13:02:52.598Z,10.10
2022-09-18T13:05:25.491Z,10.10
2022-09-18T13:08:01.638Z,10.10
2022-09-18T13:10:33.837Z,10.10
2022-09-18T13:13:10.170Z,10.30
2022-09-18T13:20:47.043Z,10.50
2022-09-18T13:23:17.800Z,10.60
2022-09-18T13:25:50.057Z,10.50
2022-09-18T13:28:20.768Z,10.60
2022-09-18T13:30:52.144Z,10.60
2022-09-18T13:33:25.333Z,10.50
2022-09-18T13:35:57.243Z,10.60
2022-09-18T13:43:39.687Z,10.40
2022-09-18T13:46:09.525Z,10.50
2022-09-18T13:48:45.180Z,10.60
2022-09-18T13:51:21.509Z,10.30
2022-09-18T13:54:14.670Z,10.40
2022-09-18T13:57:15.220Z,10.30
2022-09-18T13:59:49.305Z,10.20
2022-09-18T14:11:04.947Z,10.00
2022-09-18T14:13:42.572Z,10.10
2022-09-18T14:16:28.853Z,10.00
2022-09-18T14:19:02.991Z,10.10
2022-09-18T14:21:32.972Z,10.10
2022-09-18T14:24:06.060Z,10.10
2022-09-18T14:32:19.351Z,10.00
2022-09-18T14:34:47.109Z,10.00
2022-09-18T14:37:28.049Z,10.10
2022-09-18T14:40:01.206Z,10.10
2022-09-18T14:42:33.046Z,10.10
2022-09-18T14:45:19.840Z,10.10
2022-09-18T14:47:51.355Z,10.10
2022-09-18T14:55:33.338Z,10.00
2022-09-18T14:58:07.324Z,9.90
2022-09-18T15:00:37.519Z,10.00
2022-09-18T15:03:08.285Z,10.20
2022-09-18T15:05:37.356Z,10.10
2022-09-18T15:08:10.912Z,10.00
2022-09-18T15:10:41.138Z,10.00
2022-09-18T15:16:28.449Z,9.90
2022-09-18T15:18:58.733Z,9.90
2022-09-18T15:21:32.826Z,9.90
2022-09-18T15:24:02.406Z,9.80
2022-09-18T15:26:33.203Z,10.00
2022-09-18T15:29:04.578Z,9.90
2022-09-18T15:31:34.727Z,10.00
2022-09-18T15:39:28.428Z,9.80
2022-09-18T15:42:16.639Z,9.80
2022-09-18T15:45:18.445Z,9.70
2022-09-18T15:47:46.570Z,9.50
2022-09-18T15:50:40.022Z,9.60
2022-09-18T15:53:24.470Z,9.70
2022-09-18T15:56:00.280Z,9.70
2022-09-18T16:03:39.975Z,9.60
2022-09-18T16:06:08.071Z,9.30
2022-09-18T16:08:37.630Z,9.40
2022-09-18T16:11:06.663Z,9.50
2022-09-18T16:13:41.418Z,9.30
2022-09-18T16:16:24.296Z,9.40
2022-09-18T16:19:10.917Z,9.40
2022-09-18T16:29:06.106Z,9.50
2022-09-18T16:31:37.955Z,9.40
2022-09-18T16:34:20.746Z,9.40
2022-09-18T16:36:50.268Z,9.30
2022-09-18T16:39:22.570Z,9.30
2022-09-18T16:41:52.227Z,9.10
2022-09-18T16:44:21.169Z,9.10
2022-09-18T16:46:52.397Z,9.10
2022-09-18T16:57:07.429Z,8.90
2022-09-18T16:59:38.130Z,8.80
2022-09-18T17:02:06.176Z,8.90
2022-09-18T17:04:34.369Z,9.00
2022-09-18T17:07:02.864Z,8.90
2022-09-18T17:09:31.344Z,9.10
2022-09-18T17:12:00.888Z,9.30
2022-09-18T17:20:12.450Z,9.00
2022-09-18T17:22:41.495Z,9.10
2022-09-18T17:25:10.198Z,9.00
2022-09-18T17:27:41.762Z,9.10
2022-09-18T17:30:12.559Z,9.20
2022-09-18T17:32:39.926Z,9.00
2022-09-18T17:35:09.768Z,9.10
2022-09-18T17:42:46.176Z,9.20
2022-09-18T17:45:14.429Z,9.00
2022-09-18T17:47:41.868Z,8.90
2022-09-18T17:50:10.507Z,8.90
2022-09-18T17:52:40.238Z,8.90
2022-09-18T17:55:10.628Z,8.90
2022-09-18T17:57:38.804Z,9.00
2022-09-18T18:00:10.147Z,9.00
2022-09-18T18:07:44.350Z,8.60
2022-09-18T18:10:11.717Z,8.60
2022-09-18T18:12:39.519Z,8.60
2022-09-18T18:15:08.784Z,8.60
2022-09-18T18:17:37.899Z,8.60
2022-09-18T18:20:06.089Z,8.60
2022-09-18T18:22:33.858Z,8.50
2022-09-18T18:25:03.237Z,8.30
2022-09-18T18:30:28.330Z,8.40
2022-09-18T18:32:58.470Z,8.30
2022-09-18T18:35:26.619Z,8.20
2022-09-18T18:37:55.199Z,8.20
2022-09-18T18:40:23.466Z,8.10
2022-09-18T18:42:53.740Z,8.20
2022-09-18T18:45:21.589Z,8.30
2022-09-18T18:47:51.529Z,8.10
2022-09-18T18:55:23.898Z,8.00
2022-09-18T18:57:52.407Z,8.00
2022-09-18T19:00:21.657Z,8.10
2022-09-18T19:02:50.028Z,8.10
2022-09-18T19:05:22.560Z,8.20
2022-09-18T19:07:50.409Z,8.20
2022-09-18T19:10:23.657Z,8.00
2022-09-18T19:12:56.898Z,8.00
2022-09-18T19:20:30.696Z,8.30
2022-09-18T19:22:58.528Z,8.20
2022-09-18T19:25:27.797Z,8.30
2022-09-18T19:27:56.916Z,8.30
2022-09-18T19:30:26.006Z,8.20
2022-09-18T19:32:56.448Z,8.20
2022-09-18T19:35:23.871Z,8.30
2022-09-18T19:37:52.389Z,8.50
2022-09-18T19:47:48.268Z,8.20
2022-09-18T19:50:25.506Z,8.10
2022-09-18T19:52:53.838Z,7.90
2022-09-18T19:55:21.929Z,7.90
2022-09-18T19:57:53.508Z,8.00
2022-09-18T20:00:21.766Z,7.90
2022-09-18T20:02:53.007Z,7.80
2022-09-18T20:05:21.194Z,7.80
2022-09-18T20:15:14.977Z,8.20
2022-09-18T20:17:42.857Z,7.90
2022-09-18T20:20:13.360Z,8.10
2022-09-18T20:22:44.098Z,8.20
2022-09-18T20:25:11.640Z,8.30
2022-09-18T20:27:42.178Z,8.20
2022-09-18T20:30:12.480Z,7.90
2022-09-18T20:35:59.027Z,7.90
2022-09-18T20:38:27.098Z,7.90
2022-09-18T20:41:05.909Z,7.60
2022-09-18T20:43:41.169Z,7.70
2022-09-18T20:46:13.642Z,7.70
2022-09-18T20:48:45.414Z,7.60
2022-09-18T20:58:41.761Z,7.20
2022-09-18T21:01:10.883Z,7.20
2022-09-18T21:03:40.271Z,7.20
2022-09-18T21:06:22.044Z,7.20
2022-09-18T21:08:52.902Z,7.20
2022-09-18T21:11:22.979Z,7.10
2022-09-18T21:13:54.459Z,7.20
2022-09-18T21:16:22.826Z,7.10
2022-09-18T21:24:00.779Z,7.00
2022-09-18T21:26:32.480Z,6.90
2022-09-18T21:29:01.502Z,6.90
2022-09-18T21:31:29.880Z,6.80
2022-09-18T21:33:59.663Z,7.00
2022-09-18T21:36:28.582Z,6.90
2022-09-18T21:38:56.862Z,7.00
2022-09-18T21:49:27.162Z,6.80
2022-09-18T21:51:56.204Z,6.90
2022-09-18T21:54:24.292Z,7.00
2022-09-18T21:56:53.301Z,7.00
2022-09-18T21:59:21.974Z,6.90
2022-09-18T22:01:54.189Z,6.80
2022-09-18T22:04:22.825Z,6.80
2022-09-18T22:12:02.504Z,6.80
2022-09-18T22:14:31.632Z,6.90
2022-09-18T22:16:59.752Z,6.80
2022-09-18T22:19:27.442Z,6.80
2022-09-18T22:21:55.224Z,6.80
2022-09-18T22:24:24.583Z,6.70
2022-09-18T22:26:54.616Z,6.90
2022-09-18T22:29:25.262Z,7.00
2022-09-18T22:36:30.215Z,6.90
2022-09-18T22:38:57.573Z,7.00
2022-09-18T22:41:25.355Z,6.90
2022-09-18T22:43:57.033Z,7.00
2022-09-18T22:46:54.107Z,6.90
2022-09-18T22:49:23.005Z,6.90
2022-09-18T22:51:52.506Z,6.90
2022-09-18T22:59:28.023Z,6.90
2022-09-18T23:01:57.960Z,6.90
2022-09-18T23:04:28.479Z,6.90
2022-09-18T23:06:56.868Z,7.00
2022-09-18T23:09:24.331Z,7.00
2022-09-18T23:11:52.625Z,7.00
2022-09-18T23:14:21.884Z,7.00
2022-09-18T23:16:51.122Z,7.10
2022-09-18T23:24:27.855Z,7.30
2022-09-18T23:27:12.803Z,7.20
2022-09-18T23:29:42.234Z,7.20
2022-09-18T23:32:13.336Z,7.20
2022-09-18T23:34:47.736Z,7.10
2022-09-18T23:37:19.873Z,7.20
2022-09-18T23:39:52.453Z,7.20
2022-09-18T23:42:24.823Z,7.20
2022-09-18T23:49:56.973Z,7.20
2022-09-18T23:52:24.964Z,7.30
2022-09-18T23:54:52.125Z,7.30
2022-09-18T23:57:19.956Z,7.50
2022-09-18T23:59:49.831Z,7.50
